Time;durP1;ratioP1;P1;durP2;ratioP2;P2;SDS_P1;SDS_P2;PMS_P1;PMS_P2;Temp;Humidity;BMP_temperature;BMP_pressure;BME280_temperature;BME280_humidity;BME280_pressure;Samples;Min_cycle;Max_cycle;Signal;HPM_P1;HPM_P2
2021/07/13 00:01:24;;;;;;;16.43;14.90;;;;;;;20.16;86.68;101041.84;5016257;28;20204;-72
2021/07/13 00:03:51;;;;;;;17.50;16.00;;;;;;;19.73;86.40;100980.97;5015974;28;20702;-73
2021/07/13 00:06:16;;;;;;;16.30;14.90;;;;;;;20.06;86.58;101028.97;5011958;28;20203;-73
2021/07/13 00:08:43;;;;;;;18.27;16.53;;;;;;;19.79;86.71;101005.28;5016867;28;20440;-72
2021/07/13 00:11:09;;;;;;;17.90;16.30;;;;;;;20.10;86.91;101065.47;5015965;28;20219;-72
2021/07/13 00:13:34;;;;;;;17.53;15.93;;;;;;;19.78;87.00;101019.13;5015926;28;20444;-72
2021/07/13 00:16:00;;;;;;;15.17;13.10;;;;;;;19.84;86.61;101015.38;5012269;28;20172;-72
2021/07/13 00:18:25;;;;;;;15.00;13.60;;;;;;;19.80;86.38;101014.25;5013333;28;20655;-73
2021/07/13 00:20:50;;;;;;;16.73;15.20;;;;;;;19.79;86.46;101009.91;5012380;28;20250;-72
2021/07/13 00:23:16;;;;;;;16.60;15.20;;;;;;;19.81;86.86;101022.16;5016115;28;20192;-72
2021/07/13 00:25:41;;;;;;;17.07;15.53;;;;;;;19.79;86.81;101018.06;5017519;28;20196;-72
2021/07/13 00:28:07;;;;;;;17.67;16.07;;;;;;;19.96;86.95;101054.19;5014976;28;20522;-72
2021/07/13 00:30:32;;;;;;;19.67;16.17;;;;;;;19.62;86.55;101005.34;5014468;28;20263;-72
2021/07/13 00:32:58;;;;;;;18.27;16.43;;;;;;;19.73;86.28;101009.03;5015817;28;20211;-72
2021/07/13 00:35:23;;;;;;;17.67;16.03;;;;;;;19.71;86.96;101013.09;5014274;28;20196;-72
2021/07/13 00:37:51;;;;;;;20.00;16.43;;;;;;;19.74;86.50;101010.66;5015980;28;20625;-72
2021/07/13 00:40:20;;;;;;;18.57;16.80;;;;;;;20.07;86.33;101072.25;5017700;28;20181;-72
2021/07/13 00:42:47;;;;;;;18.17;16.27;;;;;;;19.80;86.42;101030.59;5023184;28;20460;-73
2021/07/13 00:45:13;;;;;;;17.77;16.07;;;;;;;20.04;86.33;101050.97;5020027;28;20485;-73
2021/07/13 00:47:38;;;;;;;17.37;15.77;;;;;;;19.43;86.46;100968.66;5021334;28;20792;-72
2021/07/13 00:50:05;;;;;;;17.00;15.40;;;;;;;19.76;86.21;101010.38;5021406;28;20439;-73
2021/07/13 00:52:30;;;;;;;17.50;15.83;;;;;;;19.53;86.59;100974.22;5017901;28;20216;-73
2021/07/13 00:54:58;;;;;;;19.20;16.00;;;;;;;19.60;86.77;100993.88;5018204;28;20436;-73
2021/07/13 00:57:23;;;;;;;18.60;16.63;;;;;;;20.01;86.13;101048.78;5018719;28;20535;-73
2021/07/13 00:59:49;;;;;;;16.90;15.37;;;;;;;20.03;86.24;101041.19;5016387;28;20456;-73
2021/07/13 01:02:16;;;;;;;17.83;16.13;;;;;;;19.76;86.64;101010.38;5020300;28;20278;-74
2021/07/13 01:04:47;;;;;;;17.47;15.93;;;;;;;19.96;86.67;101026.97;5017972;28;20180;-73
2021/07/13 01:07:57;;;;;;;18.13;16.33;;;;;;;19.32;86.80;100937.78;5017297;28;20435;-73
2021/07/13 01:10:50;;;;;;;19.27;17.33;;;;;;;19.95;86.52;101022.56;5027175;28;20446;-73
2021/07/13 01:13:56;;;;;;;20.27;18.10;;;;;;;19.91;86.58;101035.06;5020780;28;20426;-73
2021/07/13 01:16:27;;;;;;;17.87;16.17;;;;;;;19.92;86.49;101042.16;5018195;28;20490;-73
2021/07/13 01:19:25;;;;;;;20.00;18.03;;;;;;;19.36;86.48;100957.16;5017261;28;20788;-73
2021/07/13 01:21:57;;;;;;;17.20;15.60;;;;;;;19.69;86.68;101010.59;5018124;28;20447;-72
2021/07/13 01:25:02;;;;;;;19.37;17.40;;;;;;;19.62;86.73;100993.63;5021683;28;20431;-73
2021/07/13 01:27:46;;;;;;;19.40;17.70;;;;;;;19.88;86.81;101041.03;5018753;28;20457;-73
2021/07/13 01:30:16;;;;;;;18.27;16.70;;;;;;;19.87;86.75;101033.91;5015874;28;20431;-73
2021/07/13 01:32:45;;;;;;;18.53;16.87;;;;;;;19.84;86.77;101021.66;5020381;28;20459;-72
2021/07/13 01:35:15;;;;;;;18.97;17.17;;;;;;;19.84;86.62;101029.00;5018770;28;20792;-72
2021/07/13 01:37:44;;;;;;;19.37;17.50;;;;;;;19.80;86.77;101025.97;5015250;28;20518;-73
2021/07/13 01:40:11;;;;;;;18.40;16.70;;;;;;;19.78;87.05;101022.66;5019753;28;21043;-72
2021/07/13 01:42:40;;;;;;;19.47;17.47;;;;;;;19.73;87.32;101021.78;5015998;28;21010;-72
2021/07/13 01:45:08;;;;;;;18.93;17.13;;;;;;;19.38;87.18;100974.88;5016407;28;20517;-72
2021/07/13 01:47:36;;;;;;;18.97;17.20;;;;;;;19.70;87.26;101038.63;5019277;28;20442;-72
2021/07/13 01:50:01;;;;;;;19.80;18.00;;;;;;;19.58;87.58;101025.94;5016267;28;20430;-73
2021/07/13 01:52:30;;;;;;;19.83;18.07;;;;;;;19.62;87.63;101037.16;5017894;28;20825;-72
2021/07/13 01:54:56;;;;;;;17.60;15.83;;;;;;;19.30;87.54;100977.22;5017343;28;20191;-72
2021/07/13 01:57:26;;;;;;;19.93;17.93;;;;;;;19.72;87.45;101039.19;5017014;28;20569;-72
2021/07/13 01:59:52;;;;;;;19.80;18.00;;;;;;;19.47;87.28;101010.59;5015717;28;20440;-72
2021/07/13 02:02:18;;;;;;;18.00;16.40;;;;;;;19.53;87.08;101009.59;5016368;28;20471;-73
2021/07/13 02:04:47;;;;;;;18.80;17.00;;;;;;;19.68;87.32;101038.91;5014350;28;20438;-72
2021/07/13 02:07:13;;;;;;;17.50;15.90;;;;;;;19.63;87.48;101036.91;5019844;28;20856;-73
2021/07/13 02:09:42;;;;;;;19.20;17.50;;;;;;;19.55;87.25;101015.56;5017441;28;20444;-73
2021/07/13 02:12:08;;;;;;;19.93;17.97;;;;;;;19.40;87.65;100999.91;5017618;28;20459;-72
2021/07/13 02:14:34;;;;;;;19.47;16.97;;;;;;;19.55;87.41;101036.53;5016392;28;20808;-73
2021/07/13 02:17:00;;;;;;;20.60;18.57;;;;;;;19.81;86.56;101048.56;5015039;28;21020;-73
2021/07/13 02:19:26;;;;;;;21.23;19.13;;;;;;;19.86;85.93;101041.28;5017541;28;20447;-72
2021/07/13 02:21:52;;;;;;;19.00;17.10;;;;;;;19.86;85.81;101048.63;5017436;28;20892;-73
2021/07/13 02:24:17;;;;;;;20.20;18.27;;;;;;;19.59;86.74;101027.63;5019749;28;20445;-72
2021/07/13 02:26:49;;;;;;;18.77;17.07;;;;;;;19.56;86.95;101019.97;5016818;28;20468;-73
2021/07/13 02:29:25;;;;;;;19.43;17.63;;;;;;;19.36;86.93;100993.34;5017568;28;20184;-72
2021/07/13 02:31:58;;;;;;;19.93;18.13;;;;;;;19.54;87.34;101037.59;5017121;28;20947;-72
2021/07/13 02:34:27;;;;;;;17.77;16.17;;;;;;;19.22;87.49;100985.81;5017446;28;20852;-73
2021/07/13 02:36:56;;;;;;;19.57;17.80;;;;;;;19.45;87.42;101023.63;5017484;28;20438;-72
2021/07/13 02:39:22;;;;;;;20.10;18.30;;;;;;;18.00;87.66;100796.41;5016109;28;20994;-73
2021/07/13 02:41:51;;;;;;;19.27;17.50;;;;;;;19.56;87.45;101021.88;5016591;28;20526;-73
2021/07/13 02:44:18;;;;;;;18.93;17.20;;;;;;;19.41;87.02;100998.00;5014564;28;20439;-73
2021/07/13 02:46:44;;;;;;;18.27;16.57;;;;;;;19.52;87.25;101026.16;5016948;28;20462;-73
2021/07/13 02:49:20;;;;;;;18.60;16.70;;;;;;;19.29;87.25;100989.16;5018275;28;20439;-72
2021/07/13 02:51:47;;;;;;;17.57;16.07;;;;;;;18.97;87.42;100970.78;5015216;28;20459;-72
2021/07/13 02:54:13;;;;;;;17.73;15.93;;;;;;;18.92;87.38;100938.94;5018426;28;20815;-72
2021/07/13 02:56:40;;;;;;;18.57;16.77;;;;;;;19.46;87.28;101022.53;5016653;28;20440;-73
2021/07/13 02:59:07;;;;;;;19.03;17.13;;;;;;;19.44;87.40;101019.28;5018338;28;20443;-72
2021/07/13 03:01:33;;;;;;;19.10;17.40;;;;;;;19.37;87.43;101013.19;5016382;28;20518;-72
2021/07/13 03:03:59;;;;;;;19.63;17.73;;;;;;;19.41;87.82;101014.31;5018392;28;20931;-73
2021/07/13 03:06:25;;;;;;;18.90;16.83;;;;;;;18.71;87.33;100937.81;5016473;28;20247;-72
2021/07/13 03:08:51;;;;;;;18.30;16.80;;;;;;;19.03;87.22;100948.03;5015314;28;20455;-73
2021/07/13 03:11:17;;;;;;;19.63;17.63;;;;;;;19.10;87.97;100975.06;5016164;28;20208;-72
2021/07/13 03:13:43;;;;;;;18.87;17.13;;;;;;;18.93;88.32;100942.50;5014455;28;20442;-73
2021/07/13 03:16:12;;;;;;;20.07;18.17;;;;;;;18.83;88.11;100931.47;5018931;28;20176;-73
2021/07/13 03:18:38;;;;;;;19.57;17.53;;;;;;;19.32;87.36;100991.34;5016034;28;20195;-72
2021/07/13 03:21:04;;;;;;;18.97;17.30;;;;;;;19.27;86.85;100972.28;5018194;28;20463;-73
2021/07/13 03:23:36;;;;;;;19.37;17.57;;;;;;;19.22;87.95;100994.78;5015646;28;20185;-73
2021/07/13 03:26:03;;;;;;;18.50;16.90;;;;;;;19.30;87.16;100982.66;5017431;28;20495;-73
2021/07/13 03:28:30;;;;;;;22.43;20.27;;;;;;;19.35;86.73;100978.09;5015233;28;20436;-73
2021/07/13 03:30:56;;;;;;;21.37;19.20;;;;;;;19.46;86.39;100991.81;5015154;28;21001;-72
2021/07/13 03:33:22;;;;;;;19.63;17.90;;;;;;;19.45;86.95;100999.16;5016001;28;20582;-73
2021/07/13 03:35:49;;;;;;;19.63;17.73;;;;;;;19.25;87.52;100990.75;5014788;28;20931;-72
2021/07/13 03:38:16;;;;;;;21.37;18.97;;;;;;;19.37;87.45;101002.31;5019661;28;20435;-73
2021/07/13 03:40:43;;;;;;;19.23;17.53;;;;;;;19.28;87.19;100990.22;5015747;28;20782;-73
2021/07/13 03:43:08;;;;;;;21.70;18.80;;;;;;;19.28;87.73;100995.66;5015574;28;20537;-74
2021/07/13 03:45:34;;;;;;;28.43;17.40;;;;;;;19.00;87.17;100934.94;5017730;28;20474;-73
2021/07/13 03:48:01;;;;;;;19.70;17.90;;;;;;;19.38;87.07;100991.19;5015943;28;20249;-73
2021/07/13 03:50:32;;;;;;;20.67;18.60;;;;;;;19.18;87.00;100955.59;5014121;28;20563;-73
2021/07/13 03:52:58;;;;;;;21.40;19.40;;;;;;;18.99;86.63;100927.88;5017265;28;20466;-72
2021/07/13 03:55:24;;;;;;;19.73;17.50;;;;;;;19.38;86.90;100993.91;5013882;28;20442;-72
2021/07/13 03:57:52;;;;;;;19.73;17.00;;;;;;;19.40;86.98;100997.19;5015698;28;20184;-73
2021/07/13 04:00:18;;;;;;;19.73;17.90;;;;;;;19.46;86.73;100995.34;5014577;28;20203;-72
2021/07/13 04:02:44;;;;;;;18.93;17.10;;;;;;;19.47;86.81;100994.28;5014693;28;20459;-72
2021/07/13 04:05:13;;;;;;;19.27;17.33;;;;;;;19.06;87.59;100949.44;5015987;28;20516;-72
2021/07/13 04:07:39;;;;;;;21.93;19.90;;;;;;;19.47;86.93;100999.72;5010958;28;20279;-73
2021/07/13 04:10:09;;;;;;;22.00;19.70;;;;;;;19.32;86.61;100978.56;5017314;28;21003;-73
2021/07/13 04:12:34;;;;;;;20.43;18.00;;;;;;;19.52;86.83;100996.22;5016250;28;20462;-72
2021/07/13 04:15:00;;;;;;;20.43;18.50;;;;;;;19.36;87.54;100979.72;5023372;28;20434;-72
2021/07/13 04:17:25;;;;;;;20.60;18.70;;;;;;;19.42;87.19;100977.91;5021804;28;20192;-73
2021/07/13 04:19:51;;;;;;;19.63;17.80;;;;;;;19.32;88.18;100977.75;5019022;28;20279;-72
2021/07/13 04:22:16;;;;;;;19.23;17.33;;;;;;;19.36;88.25;100973.47;5020880;28;20204;-72
2021/07/13 04:24:42;;;;;;;18.93;17.33;;;;;;;19.20;88.28;100951.53;5023157;28;20204;-72
2021/07/13 04:27:07;;;;;;;21.53;18.80;;;;;;;18.92;89.15;100925.38;5017464;28;20592;-72
2021/07/13 04:29:33;;;;;;;19.27;17.27;;;;;;;19.41;88.85;100970.78;5018346;28;20292;-73
2021/07/13 04:31:58;;;;;;;19.17;17.53;;;;;;;19.46;88.96;100980.94;5015845;28;20271;-72
2021/07/13 04:34:23;;;;;;;18.67;17.07;;;;;;;19.04;88.76;100906.22;5018832;28;20197;-73
2021/07/13 04:36:49;;;;;;;18.80;16.83;;;;;;;19.34;88.37;100942.97;5020357;28;20191;-73
2021/07/13 04:39:14;;;;;;;19.03;17.20;;;;;;;19.54;88.57;100973.13;5018046;28;20268;-73
2021/07/13 04:41:39;;;;;;;19.70;17.83;;;;;;;19.23;88.77;100936.59;5018963;28;20219;-72
2021/07/13 04:44:05;;;;;;;18.93;17.13;;;;;;;19.24;88.78;100931.97;5016130;28;20279;-72
2021/07/13 04:46:31;;;;;;;22.50;19.07;;;;;;;19.24;89.26;100948.28;5015759;28;20243;-72
2021/07/13 04:48:57;;;;;;;19.50;17.50;;;;;;;19.56;89.31;101000.91;5016558;28;20494;-72
2021/07/13 04:51:23;;;;;;;20.50;18.70;;;;;;;19.54;89.34;100999.53;5011712;28;20673;-71
2021/07/13 04:53:49;;;;;;;17.93;16.13;;;;;;;19.47;88.52;100967.09;5015646;28;20446;-72
2021/07/13 04:56:15;;;;;;;18.77;17.20;;;;;;;19.40;88.63;100947.41;5015061;28;20518;-72
2021/07/13 04:58:41;;;;;;;17.73;16.03;;;;;;;19.37;88.38;100945.19;5007705;28;20454;-72
2021/07/13 05:01:06;;;;;;;19.27;17.57;;;;;;;19.20;88.88;100921.59;5015244;28;20684;-71
2021/07/13 05:03:31;;;;;;;19.80;18.00;;;;;;;19.43;88.82;100957.78;5017404;28;20187;-73
2021/07/13 05:05:57;;;;;;;18.93;17.03;;;;;;;19.69;88.69;100996.19;5012503;28;20671;-71
2021/07/13 05:08:23;;;;;;;19.70;17.60;;;;;;;19.69;88.74;100993.44;5019964;28;20196;-72
2021/07/13 05:10:51;;;;;;;18.83;16.93;;;;;;;19.61;88.69;100975.66;5016510;28;20667;-72
2021/07/13 05:13:18;;;;;;;18.20;16.40;;;;;;;19.83;88.56;100997.41;5017645;28;20199;-72
2021/07/13 05:15:43;;;;;;;18.07;16.27;;;;;;;19.76;88.59;101004.94;5016690;28;20483;-72
2021/07/13 05:18:10;;;;;;;18.60;16.53;;;;;;;19.48;88.53;100948.84;5017995;28;20813;-72
2021/07/13 05:20:37;;;;;;;19.10;16.67;;;;;;;19.93;88.51;101002.97;5018717;28;20193;-72
2021/07/13 05:23:09;;;;;;;17.93;16.13;;;;;;;19.62;88.67;100959.06;5018644;28;21445;-71
2021/07/13 05:25:38;;;;;;;18.20;16.40;;;;;;;19.99;88.26;101012.84;5015178;28;20471;-72
2021/07/13 05:28:05;;;;;;;18.60;16.53;;;;;;;19.78;88.10;100984.56;5013482;28;20441;-72
2021/07/13 05:30:30;;;;;;;18.63;16.73;;;;;;;19.75;88.07;100965.22;5020630;28;20439;-72
2021/07/13 05:32:57;;;;;;;18.47;16.73;;;;;;;19.77;87.98;100974.78;5018900;28;20524;-71
2021/07/13 05:35:22;;;;;;;18.93;17.23;;;;;;;19.79;88.46;100969.09;5019819;28;20196;-72
2021/07/13 05:37:48;;;;;;;19.27;17.33;;;;;;;19.66;88.71;100948.53;5019576;28;20442;-72
2021/07/13 05:40:14;;;;;;;19.00;17.00;;;;;;;19.84;88.66;100982.72;5018452;28;20211;-71
2021/07/13 05:42:41;;;;;;;19.47;17.50;;;;;;;20.10;88.60;101008.28;5019468;28;20204;-72
2021/07/13 05:45:08;;;;;;;18.73;16.97;;;;;;;19.71;88.00;100943.16;5016337;28;20821;-72
2021/07/13 05:47:33;;;;;;;17.93;16.27;;;;;;;19.80;87.84;100947.03;5019860;28;20444;-72
2021/07/13 05:49:59;;;;;;;16.50;15.00;;;;;;;20.27;87.39;101005.44;5021511;28;20595;-72
2021/07/13 05:52:25;;;;;;;18.57;16.67;;;;;;;20.11;87.59;100987.34;5019570;28;20204;-72
2021/07/13 05:54:50;;;;;;;17.83;16.13;;;;;;;20.14;88.41;100989.56;5017261;28;20267;-72
2021/07/13 05:57:16;;;;;;;17.27;15.57;;;;;;;20.00;87.92;100962.75;5018955;28;20535;-72
2021/07/13 05:59:41;;;;;;;19.83;16.57;;;;;;;20.36;87.82;101014.78;5020650;28;20184;-72
2021/07/13 06:02:07;;;;;;;22.23;16.40;;;;;;;20.35;87.63;101007.69;5014506;28;20216;-72
2021/07/13 06:04:33;;;;;;;20.70;17.00;;;;;;;20.40;87.26;101015.09;5018163;28;20188;-72
2021/07/13 06:06:58;;;;;;;16.90;15.40;;;;;;;19.83;87.48;100923.94;5015379;28;20464;-72
2021/07/13 06:09:27;;;;;;;16.67;15.07;;;;;;;20.43;87.71;101029.03;5016078;28;20263;-72
2021/07/13 06:11:52;;;;;;;19.10;16.40;;;;;;;20.47;87.22;101016.50;5017002;28;20692;-72
2021/07/13 06:14:18;;;;;;;17.87;15.97;;;;;;;20.48;86.84;101006.44;5018947;28;20446;-73
2021/07/13 06:16:44;;;;;;;17.97;16.10;;;;;;;19.99;87.37;100931.16;5010743;28;20184;-72
2021/07/13 06:19:09;;;;;;;17.00;15.50;;;;;;;20.53;87.42;101015.50;5015544;28;20189;-72
2021/07/13 06:21:35;;;;;;;17.90;16.17;;;;;;;20.25;87.11;100964.03;5016680;28;20464;-73
2021/07/13 06:24:00;;;;;;;16.80;15.10;;;;;;;20.36;86.24;100965.75;5018531;28;20648;-72
2021/07/13 06:26:25;;;;;;;16.07;14.57;;;;;;;20.20;86.31;100942.22;5013688;28;20227;-72
2021/07/13 06:28:51;;;;;;;14.87;13.37;;;;;;;20.37;86.75;100977.50;5019930;28;20193;-72
2021/07/13 06:31:16;;;;;;;17.37;15.73;;;;;;;20.46;87.03;100989.53;5015948;28;20231;-72
2021/07/13 06:33:42;;;;;;;16.43;15.00;;;;;;;20.65;86.51;101023.47;5014485;28;20196;-73
2021/07/13 06:36:09;;;;;;;17.20;15.60;;;;;;;20.29;87.27;100978.78;5016936;28;20551;-72
2021/07/13 06:38:35;;;;;;;17.47;14.37;;;;;;;20.45;87.26;100999.63;5015241;28;20443;-72
2021/07/13 06:41:00;;;;;;;17.30;15.03;;;;;;;20.59;87.11;101023.72;5015091;28;20467;-72
2021/07/13 06:43:26;;;;;;;16.97;15.27;;;;;;;20.41;87.24;101000.41;5011239;28;20181;-72
2021/07/13 06:45:51;;;;;;;16.03;14.33;;;;;;;20.49;86.53;101006.19;5031549;28;20913;-72
2021/07/13 06:48:16;;;;;;;16.57;15.03;;;;;;;20.36;86.47;100987.53;5018950;28;20624;-72
2021/07/13 06:50:42;;;;;;;16.13;14.53;;;;;;;20.24;87.10;100970.56;5017018;28;20230;-73
2021/07/13 06:53:07;;;;;;;20.17;16.43;;;;;;;20.23;86.11;100964.31;5015459;28;20192;-72
2021/07/13 06:55:33;;;;;;;16.43;14.33;;;;;;;20.48;85.93;100992.81;5018404;28;20184;-72
2021/07/13 06:57:58;;;;;;;14.47;13.17;;;;;;;20.80;85.76;101030.97;5016257;28;20243;-72
2021/07/13 07:00:24;;;;;;;15.90;14.50;;;;;;;20.47;85.72;100975.66;5010218;28;20188;-72
2021/07/13 07:02:49;;;;;;;13.90;12.60;;;;;;;20.59;86.73;101004.63;5013768;28;20299;-72
2021/07/13 07:05:15;;;;;;;15.83;14.20;;;;;;;20.53;86.59;100995.59;5014136;28;20209;-73
2021/07/13 07:07:45;;;;;;;17.27;12.20;;;;;;;20.53;86.05;100990.97;5016450;28;20288;-73
2021/07/13 07:10:11;;;;;;;14.30;13.00;;;;;;;20.57;86.52;100994.03;5015545;28;20196;-72
2021/07/13 07:12:36;;;;;;;13.17;11.97;;;;;;;20.50;86.12;100991.47;5015529;28;20471;-72
2021/07/13 07:15:02;;;;;;;14.27;12.20;;;;;;;20.51;85.90;100984.94;5017580;28;20447;-72
2021/07/13 07:17:27;;;;;;;13.77;11.93;;;;;;;20.56;85.86;100983.38;5015537;28;20181;-72
2021/07/13 07:19:53;;;;;;;12.93;11.57;;;;;;;20.29;86.90;100951.53;5015880;28;20776;-73
2021/07/13 07:22:18;;;;;;;11.60;10.40;;;;;;;20.72;87.23;101020.56;5016624;28;20633;-73
2021/07/13 07:24:43;;;;;;;15.57;11.47;;;;;;;20.82;86.83;101039.69;5016323;28;20189;-73
2021/07/13 07:27:09;;;;;;;11.97;10.73;;;;;;;20.88;86.89;101038.63;5015077;28;20211;-73
2021/07/13 07:29:34;;;;;;;12.87;10.50;;;;;;;20.86;87.14;101034.53;5018417;28;20184;-73
2021/07/13 07:31:59;;;;;;;13.07;10.20;;;;;;;20.74;87.37;101021.09;5017504;28;20292;-72
2021/07/13 07:34:25;;;;;;;11.03;10.00;;;;;;;20.84;86.51;101029.34;5016677;28;20656;-73
2021/07/13 07:36:50;;;;;;;14.20;11.53;;;;;;;20.69;86.77;101010.19;5015724;28;20193;-73
2021/07/13 07:39:16;;;;;;;12.43;10.60;;;;;;;20.55;86.19;100977.09;5016280;28;20189;-73
2021/07/13 07:41:41;;;;;;;10.93;9.90;;;;;;;20.82;85.87;101006.16;5015116;28;20215;-73
2021/07/13 07:44:06;;;;;;;13.00;10.40;;;;;;;20.85;85.45;100995.53;5019345;28;20196;-72
2021/07/13 07:46:32;;;;;;;11.63;10.40;;;;;;;21.12;85.58;101043.72;5017434;28;20208;-73
2021/07/13 07:48:58;;;;;;;12.10;10.10;;;;;;;21.06;85.82;101026.50;5016248;28;20180;-73
2021/07/13 07:51:24;;;;;;;10.53;9.47;;;;;;;20.74;85.24;100967.44;5018839;28;20212;-73
2021/07/13 07:53:49;;;;;;;10.70;9.70;;;;;;;21.12;84.79;101032.81;5013583;28;20511;-72
2021/07/13 07:56:14;;;;;;;10.07;9.17;;;;;;;21.04;85.13;101020.47;5016254;28;20180;-73
2021/07/13 07:58:41;;;;;;;13.93;10.63;;;;;;;20.94;85.72;101010.34;5018039;28;20188;-73
2021/07/13 08:01:06;;;;;;;12.73;11.43;;;;;;;21.21;85.94;101042.94;5018396;28;20213;-74
2021/07/13 08:03:31;;;;;;;11.20;10.17;;;;;;;21.20;85.53;101027.66;5015652;28;20442;-73
2021/07/13 08:05:57;;;;;;;11.03;10.03;;;;;;;20.76;85.66;100958.97;5020502;28;20661;-73
2021/07/13 08:08:23;;;;;;;11.43;10.27;;;;;;;21.20;85.12;101013.19;5018267;28;20828;-73
2021/07/13 08:10:48;;;;;;;13.93;10.77;;;;;;;21.19;85.79;101017.81;5012198;28;20271;-73
2021/07/13 08:13:16;;;;;;;11.40;9.80;;;;;;;21.19;85.30;101014.28;5018851;28;20498;-73
2021/07/13 08:15:42;;;;;;;11.60;10.50;;;;;;;21.42;84.79;101030.25;5020400;28;20199;-73
2021/07/13 08:18:07;;;;;;;10.87;9.73;;;;;;;21.19;84.79;101000.66;5016182;28;20940;-73
2021/07/13 08:20:32;;;;;;;11.27;10.20;;;;;;;21.43;85.01;101012.75;5015724;28;20223;-73
2021/07/13 08:22:58;;;;;;;10.33;9.30;;;;;;;21.56;84.85;101018.84;5019170;28;20220;-73
2021/07/13 08:25:23;;;;;;;10.37;9.30;;;;;;;21.52;85.04;100990.41;5016353;28;20216;-73
2021/07/13 08:27:49;;;;;;;9.77;8.80;;;;;;;21.34;84.57;100962.50;5016815;28;20208;-73
2021/07/13 08:30:16;;;;;;;10.80;9.70;;;;;;;21.85;84.37;101028.19;5015422;28;20180;-73
2021/07/13 08:32:41;;;;;;;11.00;10.10;;;;;;;21.74;83.95;101001.16;5018852;28;20236;-73
2021/07/13 08:35:09;;;;;;;11.93;10.77;;;;;;;21.71;83.41;100988.84;5014552;28;20471;-73
2021/07/13 08:37:35;;;;;;;9.80;9.00;;;;;;;21.81;83.33;100983.44;5015697;28;20185;-73
2021/07/13 08:40:04;;;;;;;10.77;9.80;;;;;;;21.70;83.28;100959.91;5018601;28;20446;-73
2021/07/13 08:42:36;;;;;;;12.40;11.30;;;;;;;21.72;82.29;100970.56;5020751;28;20451;-73
2021/07/13 08:45:04;;;;;;;10.43;9.43;;;;;;;22.04;83.13;100993.00;5016304;28;20447;-73
2021/07/13 08:47:30;;;;;;;13.13;11.97;;;;;;;22.11;82.98;101023.59;5019015;28;20431;-73
2021/07/13 08:49:57;;;;;;;14.23;12.70;;;;;;;21.96;82.63;101006.34;5016419;28;20492;-72
2021/07/13 08:52:22;;;;;;;13.63;12.43;;;;;;;22.08;82.98;101024.16;5014946;28;20676;-72
2021/07/13 08:54:48;;;;;;;12.67;11.47;;;;;;;21.97;82.35;100997.91;5016195;28;20889;-74
2021/07/13 08:57:13;;;;;;;13.33;12.03;;;;;;;22.17;82.43;101024.47;5012073;28;20181;-74
2021/07/13 08:59:39;;;;;;;13.23;10.57;;;;;;;21.98;82.88;100974.94;5016082;28;21554;-73
2021/07/13 09:02:04;;;;;;;11.20;10.23;;;;;;;22.20;83.13;101004.78;5015786;28;20761;-73
2021/07/13 09:04:36;;;;;;;9.77;8.77;;;;;;;22.42;82.53;101031.84;5020930;28;20197;-73
2021/07/13 09:07:06;;;;;;;10.63;9.63;;;;;;;22.34;82.52;101005.88;5018607;28;20216;-72
2021/07/13 09:09:34;;;;;;;13.10;11.80;;;;;;;22.10;82.38;100988.34;5018379;28;20438;-73
2021/07/13 09:12:09;;;;;;;16.40;14.90;;;;;;;22.23;82.44;101037.03;5014816;28;20492;-72
2021/07/13 09:14:57;;;;;;;11.97;10.87;;;;;;;22.51;82.02;101026.66;5013520;28;20434;-73
2021/07/13 09:17:30;;;;;;;14.17;12.63;;;;;;;22.56;80.89;101027.47;5015291;28;20454;-74
2021/07/13 09:20:08;;;;;;;13.60;12.40;;;;;;;22.52;80.89;101022.81;5033530;28;20951;-73
2021/07/13 09:22:35;;;;;;;12.37;11.27;;;;;;;22.72;80.74;101022.00;5014091;28;20981;-73
2021/07/13 09:25:20;;;;;;;16.03;14.60;;;;;;;22.41;80.33;100996.59;5020979;28;20455;-73
2021/07/13 09:27:46;;;;;;;14.27;12.87;;;;;;;22.62;80.37;101017.34;5019255;28;20474;-73
2021/07/13 09:30:15;;;;;;;18.77;16.90;;;;;;;22.41;80.58;100953.69;5019617;28;20477;-72
2021/07/13 09:32:40;;;;;;;29.27;26.27;;;;;;;22.67;80.20;100998.19;5016891;28;20487;-73
2021/07/13 09:35:09;;;;;;;18.27;16.57;;;;;;;22.70;80.99;101019.53;5018154;28;20474;-73
2021/07/13 09:37:47;;;;;;;14.37;12.70;;;;;;;22.86;80.60;101019.50;5019359;28;20778;-72
2021/07/13 09:40:18;;;;;;;15.93;14.43;;;;;;;22.74;80.64;101022.53;5020268;28;20983;-72
2021/07/13 09:42:52;;;;;;;14.10;12.63;;;;;;;22.74;80.60;101020.63;5019231;28;20475;-73
2021/07/13 09:45:23;;;;;;;13.03;11.73;;;;;;;22.87;80.47;101018.41;5015991;28;20432;-72
2021/07/13 09:47:51;;;;;;;16.10;14.60;;;;;;;22.62;80.65;101019.25;5014266;28;20440;-73
2021/07/13 09:50:34;;;;;;;15.77;14.13;;;;;;;22.74;79.97;101026.09;5022297;28;20508;-73
2021/07/13 09:53:04;;;;;;;12.93;11.60;;;;;;;22.73;79.65;101018.16;5010983;28;21036;-73
2021/07/13 09:55:30;;;;;;;16.00;14.47;;;;;;;22.50;80.08;100993.03;5016686;28;20438;-73
2021/07/13 09:58:16;;;;;;;13.50;11.60;;;;;;;22.53;80.40;100975.25;5016282;28;20435;-73
2021/07/13 10:00:44;;;;;;;14.40;11.00;;;;;;;22.89;80.71;101018.97;5013536;28;20220;-73
2021/07/13 10:03:15;;;;;;;11.43;10.20;;;;;;;22.71;80.38;101003.94;5011742;28;20560;-73
2021/07/13 10:05:42;;;;;;;15.70;14.20;;;;;;;22.77;79.85;101028.28;5019403;28;20468;-73
2021/07/13 10:08:09;;;;;;;11.00;10.10;;;;;;;22.82;80.16;101002.81;5029586;28;20967;-73
2021/07/13 10:10:38;;;;;;;9.77;8.77;;;;;;;22.82;80.69;101015.69;5015016;28;20506;-73
2021/07/13 10:13:03;;;;;;;10.80;9.90;;;;;;;22.89;80.88;101018.97;5018877;28;20444;-73
2021/07/13 10:15:29;;;;;;;12.80;11.70;;;;;;;22.84;80.27;101033.44;5016901;28;20509;-73
2021/07/13 10:17:54;;;;;;;12.60;11.50;;;;;;;22.87;80.43;101023.88;5016498;28;20185;-73
2021/07/13 10:20:22;;;;;;;12.27;11.17;;;;;;;22.81;80.34;101031.25;5019885;28;20922;-73
2021/07/13 10:22:49;;;;;;;15.93;14.33;;;;;;;22.76;80.53;101028.53;5016193;28;20285;-73
2021/07/13 10:25:15;;;;;;;14.53;13.20;;;;;;;22.79;80.81;101031.53;5022769;28;20456;-73
2021/07/13 10:27:47;;;;;;;14.17;12.77;;;;;;;22.76;81.26;101034.81;5019160;28;20435;-73
2021/07/13 10:30:35;;;;;;;12.70;11.50;;;;;;;22.74;81.06;101022.53;5033895;28;20173;-73
2021/07/13 10:33:00;;;;;;;14.30;13.07;;;;;;;22.65;81.42;101027.75;5017157;28;20994;-73
2021/07/13 10:35:30;;;;;;;13.70;12.40;;;;;;;22.56;80.91;101005.63;5019558;28;20420;-73
2021/07/13 10:37:58;;;;;;;16.30;14.30;;;;;;;22.57;80.79;101009.16;5023141;28;20184;-73
2021/07/13 10:40:26;;;;;;;15.37;13.97;;;;;;;22.71;81.03;101044.94;5018658;28;20438;-72
2021/07/13 10:42:56;;;;;;;16.73;14.90;;;;;;;22.46;81.43;101013.00;5022042;28;20454;-73
2021/07/13 10:45:33;;;;;;;16.47;14.73;;;;;;;22.49;82.07;101020.66;5032803;28;20431;-73
2021/07/13 10:48:06;;;;;;;14.93;13.53;;;;;;;22.55;81.61;101039.50;5018100;28;20477;-73
2021/07/13 10:50:34;;;;;;;16.50;14.80;;;;;;;22.25;82.60;101012.19;5019396;28;20496;-73
2021/07/13 10:53:16;;;;;;;15.53;13.93;;;;;;;22.43;82.24;101043.59;5019406;28;20781;-72
2021/07/13 10:55:48;;;;;;;15.37;13.87;;;;;;;22.40;82.57;101053.16;5017342;28;20550;-73
2021/07/13 10:58:14;;;;;;;16.60;15.00;;;;;;;22.28;82.24;101056.16;5018770;28;20927;-73
2021/07/13 11:01:06;;;;;;;16.80;15.30;;;;;;;22.15;82.11;101026.59;5017590;28;20431;-73
2021/07/13 11:06:05;;;;;;;17.33;15.63;;;;;;;22.25;82.63;101045.78;5015881;28;20474;-73
2021/07/13 11:09:00;;;;;;;20.87;18.77;;;;;;;22.32;82.56;101040.84;5013539;28;20180;-73
2021/07/13 11:11:28;;;;;;;17.80;14.80;;;;;;;22.41;82.90;101056.72;5020712;28;20837;-73
2021/07/13 11:14:04;;;;;;;18.53;16.60;;;;;;;22.31;82.94;101046.59;5015526;28;20443;-73
2021/07/13 11:16:32;;;;;;;24.87;22.20;;;;;;;22.21;83.03;101057.50;5018291;28;20521;-73